createdAt,value
2022-10-03T00:01:50.509Z,7.46
2022-10-03T00:03:06.699Z,7.34
2022-10-03T00:04:29.469Z,6.46
2022-10-03T00:05:29.422Z,7.45
2022-10-03T00:06:42.423Z,6.78
2022-10-03T00:07:41.536Z,6.97
2022-10-03T00:08:21.670Z,6.46
2022-10-03T00:09:39.445Z,6.57
2022-10-03T00:10:37.555Z,6.36
2022-10-03T00:11:35.422Z,7.18
2022-10-03T00:12:22.511Z,5.82
2022-10-03T00:13:10.456Z,5.91
2022-10-03T00:13:56.503Z,6.86
2022-10-03T00:15:01.470Z,6.66
2022-10-03T00:15:49.780Z,5.74
2022-10-03T00:16:40.448Z,8.44
2022-10-03T00:17:31.535Z,10.02
2022-10-03T00:18:29.449Z,8.96
2022-10-03T00:19:22.582Z,7.65
2022-10-03T00:20:25.469Z,6.46
2022-10-03T00:21:22.521Z,6.51
2022-10-03T00:22:24.465Z,7.18
2022-10-03T00:23:18.571Z,5.88
2022-10-03T00:24:13.480Z,7.06
2022-10-03T00:25:27.600Z,8.20
2022-10-03T00:26:37.441Z,7.96
2022-10-03T00:27:25.469Z,7.47
2022-10-03T00:28:47.751Z,6.00
2022-10-03T00:29:43.492Z,7.49
2022-10-03T00:30:18.342Z,7.84
2022-10-03T00:31:21.448Z,6.99
2022-10-03T00:32:31.819Z,6.61
2022-10-03T00:33:23.445Z,6.80
2022-10-03T00:34:09.630Z,8.25
2022-10-03T00:35:15.621Z,7.34
2022-10-03T00:35:52.524Z,7.14
2022-10-03T00:37:11.423Z,7.38
2022-10-03T00:37:50.326Z,7.41
2022-10-03T00:39:05.419Z,6.59
2022-10-03T00:40:06.487Z,5.99
2022-10-03T00:41:03.432Z,6.61
2022-10-03T00:41:49.461Z,8.91
2022-10-03T00:42:42.400Z,6.72
2022-10-03T00:43:55.453Z,7.10
2022-10-03T00:45:04.454Z,6.74
2022-10-03T00:46:19.532Z,7.07
2022-10-03T00:47:47.496Z,7.06
2022-10-03T00:49:15.415Z,6.47
2022-10-03T00:50:18.384Z,6.34
2022-10-03T00:51:32.488Z,6.76
2022-10-03T00:52:54.428Z,6.31
2022-10-03T00:54:10.433Z,6.86
2022-10-03T00:55:14.413Z,7.14
2022-10-03T00:56:28.371Z,7.11
2022-10-03T00:57:21.406Z,6.41
2022-10-03T00:58:51.426Z,6.94
2022-10-03T01:00:06.495Z,9.04
2022-10-03T01:01:05.481Z,8.25
2022-10-03T01:02:01.469Z,6.06
2022-10-03T01:02:56.416Z,5.29
2022-10-03T01:03:53.979Z,6.93
2022-10-03T01:04:34.391Z,8.31
2022-10-03T01:05:20.512Z,8.88
2022-10-03T01:06:36.437Z,8.80
2022-10-03T01:07:30.507Z,8.20
2022-10-03T01:08:38.456Z,8.98
2022-10-03T01:09:41.452Z,8.89
2022-10-03T01:10:38.373Z,9.44
2022-10-03T01:11:30.464Z,8.61
2022-10-03T01:12:17.399Z,6.51
2022-10-03T01:13:06.503Z,6.04
2022-10-03T01:14:03.445Z,6.57
2022-10-03T01:15:01.442Z,7.56
2022-10-03T01:15:50.387Z,7.64
2022-10-03T01:16:50.461Z,7.14
2022-10-03T01:17:50.389Z,6.71
2022-10-03T01:18:46.480Z,6.60
2022-10-03T01:19:47.387Z,8.40
2022-10-03T01:20:51.048Z,7.50
2022-10-03T01:21:50.434Z,7.39
2022-10-03T01:22:56.448Z,6.68
2022-10-03T01:23:42.398Z,6.71
2022-10-03T01:24:38.417Z,6.38
2022-10-03T01:25:37.443Z,6.61
2022-10-03T01:26:43.509Z,6.68
2022-10-03T01:28:10.547Z,6.64
2022-10-03T01:29:29.233Z,8.02
2022-10-03T01:30:30.437Z,8.82
2022-10-03T01:31:14.470Z,8.19
2022-10-03T01:31:58.883Z,7.38
2022-10-03T01:32:54.423Z,6.89
2022-10-03T01:33:42.456Z,8.05
2022-10-03T01:34:39.355Z,7.51
2022-10-03T01:35:25.451Z,5.90
2022-10-03T01:36:58.540Z,7.00
2022-10-03T01:37:59.581Z,8.96
2022-10-03T01:38:51.364Z,9.30
2022-10-03T01:39:50.466Z,7.50
2022-10-03T01:40:41.445Z,8.26
2022-10-03T01:41:46.823Z,7.88
2022-10-03T01:42:42.354Z,8.46
2022-10-03T01:43:29.420Z,9.39
2022-10-03T01:44:31.345Z,7.94
2022-10-03T01:45:15.594Z,6.97
2022-10-03T01:46:02.384Z,7.35
2022-10-03T01:46:46.669Z,7.25
2022-10-03T01:47:35.382Z,7.39
2022-10-03T01:48:30.364Z,6.93
2022-10-03T01:49:18.585Z,7.32
2022-10-03T01:50:32.419Z,8.66
2022-10-03T01:51:16.636Z,7.84
2022-10-03T01:52:28.447Z,8.21
2022-10-03T01:53:15.481Z,7.09
2022-10-03T01:54:27.608Z,6.38
2022-10-03T01:55:15.520Z,6.10
2022-10-03T01:56:32.347Z,7.21
2022-10-03T01:57:30.457Z,8.80
2022-10-03T01:58:37.577Z,6.90
2022-10-03T01:59:19.429Z,6.25
2022-10-03T02:00:25.485Z,6.39
2022-10-03T02:01:13.442Z,7.04
2022-10-03T02:01:57.375Z,8.10
2022-10-03T02:02:52.431Z,8.48
2022-10-03T02:03:38.333Z,9.06
2022-10-03T02:04:32.429Z,7.71
2022-10-03T02:05:26.372Z,6.54
2022-10-03T02:06:16.649Z,8.36
2022-10-03T02:07:28.326Z,7.63
2022-10-03T02:08:33.488Z,6.88
2022-10-03T02:09:32.328Z,6.51
2022-10-03T02:10:45.506Z,6.09
2022-10-03T02:11:47.536Z,7.69
2022-10-03T02:12:46.340Z,7.79
2022-10-03T02:13:49.295Z,10.20
2022-10-03T02:14:48.331Z,9.55
2022-10-03T02:16:05.457Z,9.13
2022-10-03T02:17:20.367Z,8.26
2022-10-03T02:18:27.427Z,8.18
2022-10-03T02:19:33.914Z,8.36
2022-10-03T02:20:37.327Z,8.85
2022-10-03T02:21:43.319Z,8.96
2022-10-03T02:22:49.310Z,7.28
2022-10-03T02:23:46.303Z,8.52
2022-10-03T02:24:57.354Z,6.53
2022-10-03T02:26:17.492Z,6.91
2022-10-03T02:27:18.331Z,7.35
2022-10-03T02:28:04.447Z,7.53
2022-10-03T02:29:28.361Z,7.06
2022-10-03T02:30:22.497Z,7.64
2022-10-03T02:31:32.454Z,7.40
2022-10-03T02:32:35.308Z,8.36
2022-10-03T02:33:56.284Z,7.69
2022-10-03T02:35:03.292Z,7.10
2022-10-03T02:36:10.305Z,7.06
2022-10-03T02:37:12.364Z,7.05
2022-10-03T02:38:24.397Z,8.24
2022-10-03T02:39:24.388Z,8.05
2022-10-03T02:40:48.262Z,7.57
2022-10-03T02:41:51.760Z,6.68
2022-10-03T02:42:43.286Z,6.35
2022-10-03T02:43:53.324Z,7.80
2022-10-03T02:45:38.386Z,7.40
2022-10-03T02:47:13.323Z,7.14
2022-10-03T02:48:36.344Z,8.41
2022-10-03T02:49:40.306Z,7.55
2022-10-03T02:50:28.357Z,6.04
2022-10-03T02:51:08.291Z,6.36
2022-10-03T02:52:06.530Z,7.51
2022-10-03T02:53:08.377Z,8.32
2022-10-03T02:53:53.344Z,7.81
2022-10-03T02:55:04.407Z,7.41
2022-10-03T02:56:07.573Z,7.78
2022-10-03T02:57:09.322Z,8.43
2022-10-03T02:58:13.382Z,7.69
2022-10-03T02:59:03.297Z,7.00
2022-10-03T02:59:50.387Z,8.75
2022-10-03T03:00:49.320Z,8.15
2022-10-03T03:02:03.393Z,6.30
2022-10-03T03:03:05.397Z,6.69
2022-10-03T03:04:22.535Z,6.55
2022-10-03T03:05:05.272Z,7.10
2022-10-03T03:06:11.409Z,5.91
2022-10-03T03:07:33.264Z,6.78
2022-10-03T03:08:46.351Z,8.56
2022-10-03T03:10:07.287Z,8.18
2022-10-03T03:11:18.351Z,8.20
2022-10-03T03:12:30.269Z,8.13
2022-10-03T03:13:39.261Z,8.32
2022-10-03T03:14:38.303Z,9.07
2022-10-03T03:16:09.292Z,8.50
2022-10-03T03:17:03.289Z,7.88
2022-10-03T03:18:02.331Z,7.95
2022-10-03T03:18:56.334Z,7.51
2022-10-03T03:19:42.424Z,7.26
2022-10-03T03:20:31.256Z,7.41
2022-10-03T03:21:34.284Z,7.76
2022-10-03T03:22:22.280Z,7.65
2022-10-03T03:23:10.592Z,8.66
2022-10-03T03:24:06.278Z,8.18
2022-10-03T03:25:11.433Z,7.24
2022-10-03T03:26:27.332Z,6.38
2022-10-03T03:27:42.325Z,7.29
2022-10-03T03:29:14.256Z,8.88
2022-10-03T03:30:08.296Z,7.21
2022-10-03T03:31:26.407Z,7.18
2022-10-03T03:32:38.236Z,7.13
2022-10-03T03:34:15.244Z,6.36
2022-10-03T03:35:18.318Z,8.77
2022-10-03T03:36:23.242Z,8.71
2022-10-03T03:37:26.558Z,7.99
2022-10-03T03:38:23.257Z,5.75
2022-10-03T03:39:26.263Z,7.63
2022-10-03T03:40:42.245Z,8.81
2022-10-03T03:41:39.411Z,8.35
2022-10-03T03:43:17.279Z,8.81
2022-10-03T03:44:45.438Z,8.11
2022-10-03T03:45:49.312Z,7.84
2022-10-03T03:46:51.215Z,7.45
2022-10-03T03:48:09.294Z,7.89
2022-10-03T03:49:28.257Z,7.34
2022-10-03T03:50:46.303Z,8.90
2022-10-03T03:51:57.317Z,9.76
2022-10-03T03:52:59.269Z,7.40
2022-10-03T03:53:57.584Z,8.54
2022-10-03T03:54:57.251Z,9.40
2022-10-03T03:55:55.320Z,7.09
2022-10-03T03:57:01.246Z,6.56
2022-10-03T03:58:25.297Z,7.03
2022-10-03T03:59:35.244Z,8.29
2022-10-03T04:00:58.362Z,10.04
2022-10-03T04:02:01.295Z,9.54
2022-10-03T04:03:00.204Z,8.43
2022-10-03T04:04:02.288Z,7.82
2022-10-03T04:05:17.191Z,8.69
2022-10-03T04:06:16.330Z,7.49
2022-10-03T04:07:35.171Z,9.27
2022-10-03T04:09:07.217Z,8.36
2022-10-03T04:10:23.285Z,8.48
2022-10-03T04:11:44.351Z,7.41
2022-10-03T04:12:51.257Z,7.91
2022-10-03T04:14:31.356Z,8.34
2022-10-03T04:15:28.313Z,7.80
2022-10-03T04:16:48.338Z,7.00
2022-10-03T04:18:32.349Z,8.06
2022-10-03T04:19:24.651Z,8.05
2022-10-03T04:20:40.187Z,6.97
2022-10-03T04:21:32.832Z,8.80
2022-10-03T04:22:26.231Z,7.75
2022-10-03T04:23:23.005Z,7.94
2022-10-03T04:24:06.037Z,8.34
2022-10-03T04:25:01.167Z,7.70
2022-10-03T04:25:47.383Z,7.71
2022-10-03T04:26:51.920Z,8.05
2022-10-03T04:28:00.301Z,7.09
2022-10-03T04:28:45.300Z,8.85
2022-10-03T04:29:44.267Z,10.04
2022-10-03T04:31:21.295Z,7.94
2022-10-03T04:32:22.220Z,7.93
2022-10-03T04:33:12.264Z,8.18
2022-10-03T04:34:11.334Z,9.38
2022-10-03T04:35:23.182Z,8.44
2022-10-03T04:36:35.262Z,7.81
2022-10-03T04:37:55.296Z,7.89
2022-10-03T04:38:43.175Z,7.99
2022-10-03T04:39:21.217Z,6.90
2022-10-03T04:40:07.841Z,7.76
2022-10-03T04:41:19.178Z,8.45
2022-10-03T04:42:01.871Z,9.54
2022-10-03T04:42:40.862Z,8.01
2022-10-03T04:43:37.177Z,8.90
2022-10-03T04:44:36.261Z,9.01
2022-10-03T04:45:12.623Z,8.11
2022-10-03T04:45:59.332Z,7.95
2022-10-03T04:46:43.200Z,7.04
2022-10-03T04:47:39.172Z,7.09
2022-10-03T04:48:42.340Z,8.88
2022-10-03T04:49:33.173Z,8.57
2022-10-03T04:50:18.219Z,7.50
2022-10-03T04:51:31.241Z,8.43
2022-10-03T04:52:46.165Z,8.70
2022-10-03T04:53:39.948Z,7.34
2022-10-03T04:54:34.236Z,8.11
2022-10-03T04:55:29.194Z,8.25
2022-10-03T04:56:18.937Z,7.93
2022-10-03T04:57:06.143Z,8.30
2022-10-03T04:57:53.958Z,8.02
2022-10-03T04:58:50.225Z,8.51
2022-10-03T04:59:59.592Z,8.49
2022-10-03T05:01:21.283Z,7.85
2022-10-03T05:02:46.138Z,9.57
2022-10-03T05:04:21.140Z,10.69
2022-10-03T05:05:49.167Z,10.52
2022-10-03T05:06:54.303Z,9.66
2022-10-03T05:07:32.216Z,7.86
2022-10-03T05:08:56.152Z,9.10
2022-10-03T05:09:41.229Z,10.35
2022-10-03T05:10:50.138Z,10.76
2022-10-03T05:11:49.730Z,9.02
2022-10-03T05:12:58.182Z,7.49
2022-10-03T05:14:02.588Z,8.64
2022-10-03T05:15:04.191Z,10.55
2022-10-03T05:16:06.271Z,9.19
2022-10-03T05:16:48.219Z,9.65
2022-10-03T05:17:35.221Z,9.34
2022-10-03T05:18:27.192Z,9.15
2022-10-03T05:19:17.192Z,9.21
2022-10-03T05:20:16.165Z,8.36
2022-10-03T05:21:07.217Z,8.29
2022-10-03T05:22:03.191Z,10.13
2022-10-03T05:23:00.855Z,9.54
2022-10-03T05:23:41.163Z,7.20
2022-10-03T05:24:36.282Z,6.10
2022-10-03T05:25:29.120Z,7.25
2022-10-03T05:26:44.114Z,8.55
2022-10-03T05:27:33.136Z,7.69
2022-10-03T05:28:26.455Z,7.03
2022-10-03T05:29:25.337Z,8.86
2022-10-03T05:30:26.252Z,7.90
2022-10-03T05:31:15.195Z,8.34
2022-10-03T05:31:58.029Z,9.90
2022-10-03T05:33:13.128Z,10.11
2022-10-03T05:34:20.251Z,11.06
2022-10-03T05:35:35.203Z,8.77
2022-10-03T05:36:20.193Z,7.85
2022-10-03T05:37:24.102Z,9.36
2022-10-03T05:38:34.644Z,8.71
2022-10-03T05:39:42.140Z,7.76
2022-10-03T05:40:22.219Z,7.44
2022-10-03T05:41:16.148Z,8.98
2022-10-03T05:42:23.722Z,7.04
2022-10-03T05:43:10.112Z,6.55
2022-10-03T05:44:16.484Z,8.64
2022-10-03T05:45:16.087Z,10.43
2022-10-03T05:46:02.954Z,10.23
2022-10-03T05:47:03.147Z,10.20
2022-10-03T05:48:04.155Z,7.82
2022-10-03T05:49:06.281Z,6.60
2022-10-03T05:50:21.120Z,7.30
2022-10-03T05:51:35.094Z,7.03
2022-10-03T05:52:34.335Z,7.01
2022-10-03T05:53:30.216Z,7.75
2022-10-03T05:54:52.124Z,9.06
2022-10-03T05:55:35.356Z,10.29
2022-10-03T05:56:47.165Z,9.56
2022-10-03T05:58:12.147Z,9.49
2022-10-03T05:59:06.135Z,10.77
2022-10-03T06:00:19.337Z,9.93
2022-10-03T06:01:44.152Z,8.26
2022-10-03T06:03:04.219Z,6.74
2022-10-03T06:03:59.331Z,7.80
2022-10-03T06:04:59.363Z,11.03
2022-10-03T06:05:52.095Z,9.99
2022-10-03T06:06:55.188Z,9.13
2022-10-03T06:08:22.095Z,9.10
2022-10-03T06:09:34.184Z,8.27
2022-10-03T06:10:49.089Z,8.61
2022-10-03T06:12:08.130Z,8.14
2022-10-03T06:13:02.100Z,7.54
2022-10-03T06:14:31.139Z,7.59
2022-10-03T06:15:23.195Z,9.32
2022-10-03T06:16:30.254Z,8.41
2022-10-03T06:17:43.201Z,8.21
2022-10-03T06:18:56.238Z,8.14
2022-10-03T06:19:58.127Z,7.69
2022-10-03T06:21:12.152Z,8.49
2022-10-03T06:21:57.269Z,7.74
2022-10-03T06:23:15.149Z,6.95
2022-10-03T06:24:26.224Z,8.01
2022-10-03T06:25:35.232Z,8.82
2022-10-03T06:28:41.165Z,9.16
2022-10-03T06:29:35.075Z,8.51
2022-10-03T06:30:39.109Z,6.70
2022-10-03T06:31:36.166Z,6.96
2022-10-03T06:32:53.140Z,6.72
2022-10-03T06:33:54.220Z,5.26
2022-10-03T06:35:25.112Z,5.70
2022-10-03T06:36:41.175Z,5.57
2022-10-03T06:38:13.549Z,5.99
2022-10-03T06:39:36.238Z,7.00
2022-10-03T06:40:40.082Z,7.59
2022-10-03T06:42:06.116Z,5.84
2022-10-03T06:43:18.428Z,5.57
2022-10-03T06:44:49.097Z,6.94
2022-10-03T06:46:17.135Z,5.90
2022-10-03T06:47:47.758Z,6.36
2022-10-03T06:48:42.052Z,5.81
2022-10-03T06:49:49.173Z,6.82
2022-10-03T06:50:48.139Z,8.29
2022-10-03T06:51:52.101Z,7.70
2022-10-03T06:53:20.107Z,7.25
2022-10-03T06:54:11.508Z,7.16
2022-10-03T06:55:33.104Z,7.95
2022-10-03T06:56:34.059Z,8.29
2022-10-03T06:57:37.534Z,6.93
2022-10-03T06:58:59.133Z,6.47
2022-10-03T07:00:06.729Z,7.81
2022-10-03T07:01:11.138Z,7.99
2022-10-03T07:01:59.155Z,7.04
2022-10-03T07:03:14.056Z,6.86
2022-10-03T07:04:22.073Z,7.09
2022-10-03T07:05:53.168Z,6.49
2022-10-03T07:07:26.189Z,6.00
2022-10-03T07:08:39.122Z,5.34
2022-10-03T07:10:08.049Z,6.18
2022-10-03T07:11:38.186Z,6.32
2022-10-03T07:12:33.064Z,6.25
2022-10-03T07:13:35.105Z,6.50
2022-10-03T07:14:34.047Z,6.10
2022-10-03T07:16:02.870Z,6.63
2022-10-03T07:16:54.153Z,6.78
2022-10-03T07:17:51.092Z,6.41
2022-10-03T07:19:22.351Z,6.06
2022-10-03T07:20:29.168Z,6.69
2022-10-03T07:21:42.301Z,5.70
2022-10-03T07:22:46.132Z,6.64
2022-10-03T07:23:52.119Z,7.47
2022-10-03T07:25:09.533Z,7.66
2022-10-03T07:25:50.054Z,7.49
2022-10-03T07:27:03.111Z,6.40
2022-10-03T07:27:50.811Z,8.86
2022-10-03T07:28:50.197Z,10.61
2022-10-03T07:29:41.084Z,8.07
2022-10-03T07:30:27.227Z,8.90
2022-10-03T07:31:35.081Z,7.47
2022-10-03T07:32:39.105Z,6.79
2022-10-03T07:33:58.080Z,7.09
2022-10-03T07:35:22.031Z,7.35
2022-10-03T07:37:33.139Z,5.47
2022-10-03T07:38:57.032Z,5.00
2022-10-03T07:39:59.995Z,4.99
2022-10-03T07:41:08.033Z,5.94
2022-10-03T07:41:51.779Z,5.96
2022-10-03T07:42:48.184Z,5.97
2022-10-03T07:43:40.186Z,6.19
2022-10-03T07:44:42.089Z,6.04
2022-10-03T07:45:35.350Z,6.80
2022-10-03T07:46:33.171Z,6.36
2022-10-03T07:47:40.119Z,5.22
2022-10-03T07:48:58.047Z,5.29
2022-10-03T07:49:37.513Z,6.53
2022-10-03T07:50:57.097Z,5.76
2022-10-03T07:51:57.094Z,5.46
2022-10-03T07:53:14.104Z,6.22
2022-10-03T07:54:34.975Z,6.81
2022-10-03T07:55:39.043Z,5.89
2022-10-03T07:57:01.020Z,6.66
2022-10-03T07:58:15.978Z,8.24
2022-10-03T07:59:32.976Z,6.84
2022-10-03T08:00:40.410Z,6.53
2022-10-03T08:01:41.304Z,6.47
2022-10-03T08:02:51.069Z,5.85
2022-10-03T08:04:08.060Z,6.28
2022-10-03T08:05:11.949Z,6.15
2022-10-03T08:06:18.322Z,5.25
2022-10-03T08:07:11.017Z,5.70
2022-10-03T08:08:17.005Z,5.03
2022-10-03T08:09:20.025Z,4.38
2022-10-03T08:10:26.996Z,5.03
2022-10-03T08:12:06.024Z,5.11
2022-10-03T08:13:00.014Z,4.97
2022-10-03T08:14:05.997Z,4.59
2022-10-03T08:15:20.631Z,5.21
2022-10-03T08:16:13.018Z,4.79
2022-10-03T08:17:26.105Z,3.84
2022-10-03T08:18:23.973Z,5.14
2022-10-03T08:19:33.033Z,5.56
2022-10-03T08:20:35.968Z,5.93
2022-10-03T08:22:00.036Z,5.29
2022-10-03T08:23:16.047Z,4.06
2022-10-03T08:24:22.029Z,4.97
2022-10-03T08:25:43.002Z,5.76
2022-10-03T08:26:41.432Z,4.18
2022-10-03T08:27:37.945Z,3.86
2022-10-03T08:28:33.313Z,3.63
2022-10-03T08:29:48.965Z,5.40
2022-10-03T08:30:35.060Z,6.00
2022-10-03T08:31:37.483Z,5.82
2022-10-03T08:32:23.101Z,4.94
2022-10-03T08:33:25.977Z,6.10
2022-10-03T08:34:35.088Z,6.39
2022-10-03T08:35:36.953Z,6.22
2022-10-03T08:36:48.972Z,4.93
2022-10-03T08:37:54.016Z,5.29
2022-10-03T08:39:16.956Z,4.94
2022-10-03T08:40:37.953Z,4.61
2022-10-03T08:41:51.016Z,4.20
2022-10-03T08:42:50.994Z,5.10
2022-10-03T08:44:04.045Z,5.56
2022-10-03T08:45:39.012Z,5.79
2022-10-03T08:46:53.013Z,5.09
2022-10-03T08:48:06.949Z,5.70
2022-10-03T08:49:09.975Z,4.20
2022-10-03T08:50:49.010Z,4.66
2022-10-03T08:52:03.957Z,4.88
2022-10-03T08:53:24.977Z,4.90
2022-10-03T08:54:35.190Z,5.57
2022-10-03T08:55:37.955Z,5.24
2022-10-03T08:56:21.520Z,5.21
2022-10-03T08:57:13.953Z,4.78
2022-10-03T08:58:05.023Z,4.35
2022-10-03T08:59:03.005Z,5.04
2022-10-03T09:00:20.114Z,4.50
2022-10-03T09:01:16.999Z,3.91
2022-10-03T09:02:06.121Z,4.95
2022-10-03T09:03:20.090Z,3.84
2022-10-03T09:04:22.192Z,4.29
2022-10-03T09:05:26.913Z,4.68
2022-10-03T09:06:26.011Z,4.56
2022-10-03T09:07:45.964Z,5.50
2022-10-03T09:08:48.135Z,5.79
2022-10-03T09:10:23.916Z,5.46
2022-10-03T09:11:48.912Z,5.94
2022-10-03T09:13:03.908Z,5.63
2022-10-03T09:14:17.978Z,5.18
2022-10-03T09:15:11.948Z,6.53
2022-10-03T09:16:18.370Z,5.72
2022-10-03T09:17:15.900Z,5.69
2022-10-03T09:18:41.010Z,5.71
2022-10-03T09:19:56.060Z,5.95
2022-10-03T09:21:14.133Z,6.85
2022-10-03T09:22:51.913Z,6.89
2022-10-03T09:24:16.899Z,6.30
2022-10-03T09:25:20.028Z,6.99
2022-10-03T09:26:57.916Z,6.41
2022-10-03T09:28:37.014Z,6.79
2022-10-03T09:29:55.887Z,4.94
2022-10-03T09:30:52.105Z,5.24
2022-10-03T09:31:42.604Z,5.95
2022-10-03T09:32:55.926Z,6.16
2022-10-03T09:33:51.494Z,6.82
2022-10-03T09:34:53.923Z,5.95
2022-10-03T09:36:11.928Z,4.49
2022-10-03T09:37:35.912Z,4.31
2022-10-03T09:38:44.869Z,4.34
2022-10-03T09:40:02.908Z,4.32
2022-10-03T09:41:34.986Z,4.64
2022-10-03T09:42:37.908Z,5.13
2022-10-03T09:43:42.877Z,3.17
2022-10-03T09:44:54.953Z,4.60
2022-10-03T09:46:21.971Z,5.78
2022-10-03T09:47:28.982Z,5.70
2022-10-03T09:48:15.130Z,4.05
2022-10-03T09:48:54.885Z,3.30
2022-10-03T09:49:59.150Z,4.13
2022-10-03T09:50:44.881Z,4.90
2022-10-03T09:51:25.016Z,4.14
2022-10-03T09:52:57.979Z,4.59
2022-10-03T09:54:04.958Z,4.90
2022-10-03T09:55:22.863Z,4.00
2022-10-03T09:56:23.923Z,3.96
2022-10-03T09:57:44.895Z,4.26
2022-10-03T09:58:55.929Z,5.26
2022-10-03T09:59:49.933Z,4.45
2022-10-03T10:01:28.891Z,5.07
2022-10-03T10:03:03.974Z,4.66
2022-10-03T10:03:54.028Z,5.30
2022-10-03T10:04:55.236Z,4.60
2022-10-03T10:06:32.009Z,2.97
2022-10-03T10:07:57.929Z,3.22
2022-10-03T10:09:11.180Z,3.53
2022-10-03T10:10:46.877Z,4.66
2022-10-03T10:12:07.872Z,4.94
2022-10-03T10:13:20.999Z,3.97
2022-10-03T10:14:32.930Z,4.00
2022-10-03T10:15:58.898Z,4.64
2022-10-03T10:17:14.886Z,3.99
2022-10-03T10:18:14.949Z,4.59
2022-10-03T10:19:33.892Z,4.96
2022-10-03T10:20:33.874Z,6.66
2022-10-03T10:21:41.865Z,5.51
2022-10-03T10:23:09.922Z,3.56
2022-10-03T10:24:08.881Z,4.06
2022-10-03T10:25:10.952Z,5.10
2022-10-03T10:26:09.950Z,5.66
2022-10-03T10:27:08.845Z,5.32
2022-10-03T10:28:04.086Z,4.78
2022-10-03T10:29:30.824Z,4.10
2022-10-03T10:30:26.858Z,4.60
2022-10-03T10:31:47.882Z,4.19
2022-10-03T10:33:19.879Z,4.74
2022-10-03T10:34:36.839Z,5.81
2022-10-03T10:35:43.849Z,6.24
2022-10-03T10:36:56.926Z,4.84
2022-10-03T10:38:01.914Z,4.93
2022-10-03T10:39:20.883Z,5.69
2022-10-03T10:40:27.855Z,4.89
2022-10-03T10:41:39.095Z,5.63
2022-10-03T10:42:56.909Z,5.30
2022-10-03T10:44:13.833Z,5.10
2022-10-03T10:45:21.978Z,5.11
2022-10-03T10:46:30.891Z,5.20
2022-10-03T10:47:29.844Z,5.55
2022-10-03T10:48:47.908Z,6.40
2022-10-03T10:50:04.854Z,5.03
2022-10-03T10:50:56.895Z,4.26
2022-10-03T10:51:52.843Z,4.84
2022-10-03T10:52:47.904Z,5.24
2022-10-03T10:54:18.852Z,4.74
2022-10-03T10:55:43.966Z,3.51
2022-10-03T10:57:14.914Z,3.21
2022-10-03T10:58:52.852Z,3.55
2022-10-03T10:59:47.978Z,3.78
2022-10-03T11:00:37.898Z,4.63
2022-10-03T11:01:38.035Z,5.03
2022-10-03T11:02:45.828Z,5.50
2022-10-03T11:04:03.828Z,5.36
2022-10-03T11:05:42.856Z,5.03
2022-10-03T11:07:00.803Z,4.30
2022-10-03T11:08:29.803Z,4.14
2022-10-03T11:09:57.861Z,4.74
2022-10-03T11:11:17.813Z,4.30
2022-10-03T11:12:48.800Z,3.61
2022-10-03T11:14:00.794Z,3.50
2022-10-03T11:15:13.820Z,3.81
2022-10-03T11:16:42.109Z,3.94
2022-10-03T11:18:06.828Z,4.50
2022-10-03T11:19:04.828Z,5.72
2022-10-03T11:20:09.782Z,4.43
2022-10-03T11:21:08.825Z,3.97
2022-10-03T11:22:11.891Z,3.26
2022-10-03T11:23:01.137Z,3.29
2022-10-03T11:24:20.229Z,4.60
2022-10-03T11:25:30.840Z,4.51
2022-10-03T11:27:08.852Z,4.55
2022-10-03T11:28:38.838Z,4.66
2022-10-03T11:30:03.769Z,4.93
2022-10-03T11:31:11.900Z,5.11
2022-10-03T11:32:31.825Z,4.72
2022-10-03T11:33:32.851Z,4.76
2022-10-03T11:34:54.783Z,4.51
2022-10-03T11:36:12.015Z,4.94
2022-10-03T11:37:12.780Z,5.61
2022-10-03T11:38:13.804Z,6.38
2022-10-03T11:39:14.507Z,6.20
2022-10-03T11:40:23.784Z,5.57
2022-10-03T11:41:26.808Z,5.64
2022-10-03T11:42:45.747Z,6.16
2022-10-03T11:44:01.475Z,5.56
2022-10-03T11:45:15.890Z,4.90
2022-10-03T11:46:27.781Z,4.74
2022-10-03T11:47:39.799Z,5.11
2022-10-03T11:48:45.815Z,5.64
2022-10-03T11:50:01.845Z,6.95
2022-10-03T11:50:51.909Z,6.28
2022-10-03T11:51:53.916Z,5.00
2022-10-03T11:52:39.945Z,5.13
2022-10-03T11:53:27.796Z,4.25
2022-10-03T11:54:31.869Z,4.49
2022-10-03T11:55:30.796Z,4.68
2022-10-03T11:56:23.811Z,4.72
2022-10-03T11:57:10.756Z,5.05
2022-10-03T11:57:54.909Z,4.34
2022-10-03T11:58:39.772Z,3.79
2022-10-03T11:59:36.050Z,4.46
2022-10-03T12:00:22.778Z,4.69
2022-10-03T12:01:20.867Z,5.30
2022-10-03T12:02:29.989Z,5.09
2022-10-03T12:03:36.919Z,5.32
2022-10-03T12:04:29.901Z,5.01
2022-10-03T12:05:36.801Z,5.74
2022-10-03T12:07:09.880Z,5.13
2022-10-03T12:08:47.874Z,4.45
2022-10-03T12:10:17.872Z,3.92
2022-10-03T12:11:32.754Z,5.31
2022-10-03T12:12:43.822Z,4.85
2022-10-03T12:13:49.763Z,4.19
2022-10-03T12:14:57.791Z,4.45
2022-10-03T12:16:08.770Z,4.69
2022-10-03T12:17:08.787Z,3.67
2022-10-03T12:18:19.756Z,3.17
2022-10-03T12:19:43.752Z,3.80
2022-10-03T12:20:43.876Z,4.49
2022-10-03T12:22:07.770Z,3.20
2022-10-03T12:23:10.984Z,4.34
2022-10-03T12:24:00.771Z,4.54
2022-10-03T12:24:47.875Z,3.10
2022-10-03T12:25:31.806Z,3.66
2022-10-03T12:26:14.846Z,3.71
2022-10-03T12:27:13.762Z,2.67
2022-10-03T12:28:02.921Z,2.22
2022-10-03T12:28:49.788Z,2.85
2022-10-03T12:29:31.823Z,3.36
2022-10-03T12:30:08.838Z,2.42
2022-10-03T12:31:03.830Z,3.42
2022-10-03T12:31:45.848Z,3.69
2022-10-03T12:32:47.741Z,3.49
2022-10-03T12:33:52.882Z,3.06
2022-10-03T12:34:56.761Z,2.71
2022-10-03T12:35:36.844Z,3.00
2022-10-03T12:36:43.781Z,2.92
2022-10-03T12:37:44.834Z,3.30
2022-10-03T12:39:00.822Z,2.84
2022-10-03T12:39:41.836Z,3.28
2022-10-03T12:40:39.837Z,3.08
2022-10-03T12:41:31.818Z,2.53
2022-10-03T12:42:33.789Z,2.45
2022-10-03T12:43:41.903Z,3.75
2022-10-03T12:45:13.809Z,3.34
2022-10-03T12:46:07.865Z,2.59
2022-10-03T12:47:24.359Z,2.78
2022-10-03T12:48:33.748Z,2.88
2022-10-03T12:49:37.789Z,3.26
2022-10-03T12:50:34.903Z,4.00
2022-10-03T12:51:21.767Z,3.99
2022-10-03T12:52:23.772Z,3.85
2022-10-03T12:53:30.745Z,4.32
2022-10-03T12:54:49.713Z,4.65
2022-10-03T12:56:08.787Z,4.38
2022-10-03T12:57:33.794Z,4.22
2022-10-03T12:58:39.798Z,4.30
2022-10-03T12:59:30.714Z,5.05
2022-10-03T13:00:20.887Z,6.84
2022-10-03T13:01:25.747Z,6.94
2022-10-03T13:02:30.692Z,6.70
2022-10-03T13:03:13.787Z,7.39
2022-10-03T13:04:07.944Z,4.65
2022-10-03T13:05:15.896Z,3.70
2022-10-03T13:06:38.783Z,4.36
2022-10-03T13:07:58.881Z,3.96
2022-10-03T13:08:53.790Z,4.18
2022-10-03T13:09:40.794Z,5.44
2022-10-03T13:10:47.896Z,4.72
2022-10-03T13:11:42.159Z,4.00
2022-10-03T13:12:55.695Z,4.41
2022-10-03T13:14:04.761Z,3.84
2022-10-03T13:15:12.751Z,4.84
2022-10-03T13:16:32.716Z,4.76
2022-10-03T13:17:33.714Z,5.35
2022-10-03T13:18:48.869Z,5.00
2022-10-03T13:19:36.921Z,3.67
2022-10-03T13:20:39.349Z,4.65
2022-10-03T13:22:46.052Z,5.41
2022-10-03T13:23:44.704Z,5.00
2022-10-03T13:25:13.720Z,4.49
2022-10-03T13:26:40.714Z,3.66
2022-10-03T13:27:46.742Z,5.36
2022-10-03T13:28:44.699Z,6.35
2022-10-03T13:29:50.703Z,6.34
2022-10-03T13:30:39.782Z,4.70
2022-10-03T13:31:23.854Z,4.01
2022-10-03T13:32:10.674Z,3.83
2022-10-03T13:32:47.784Z,6.11
2022-10-03T13:33:38.691Z,5.91
2022-10-03T13:34:23.781Z,4.16
2022-10-03T13:35:47.998Z,4.85
2022-10-03T13:36:27.870Z,4.31
2022-10-03T13:37:23.795Z,4.25
2022-10-03T13:38:28.847Z,4.09
2022-10-03T13:39:24.723Z,3.41
2022-10-03T13:39:59.751Z,3.83
2022-10-03T13:40:54.776Z,4.05
2022-10-03T13:41:42.752Z,4.28
2022-10-03T13:42:58.693Z,4.56
2022-10-03T13:43:38.846Z,4.20
2022-10-03T13:44:30.690Z,4.78
2022-10-03T13:45:30.761Z,4.50
2022-10-03T13:46:32.785Z,5.22
2022-10-03T13:47:36.890Z,4.30
2022-10-03T13:48:33.807Z,4.95
2022-10-03T13:49:18.762Z,5.13
2022-10-03T13:50:17.762Z,5.19
2022-10-03T13:51:45.725Z,3.31
2022-10-03T13:53:09.694Z,5.70
2022-10-03T13:54:15.700Z,7.50
2022-10-03T13:55:58.386Z,7.19
2022-10-03T13:56:55.699Z,7.59
2022-10-03T13:57:55.834Z,9.56
2022-10-03T13:59:13.691Z,4.20
2022-10-03T14:00:07.760Z,8.01
2022-10-03T14:01:17.721Z,7.97
2022-10-03T14:03:43.684Z,5.56
2022-10-03T14:04:27.188Z,7.09
2022-10-03T14:05:28.694Z,8.68
2022-10-03T14:06:37.628Z,6.93
2022-10-03T14:07:31.668Z,6.28
2022-10-03T14:08:21.749Z,4.34
2022-10-03T14:09:15.712Z,5.40
2022-10-03T14:10:03.735Z,5.45
2022-10-03T14:11:00.656Z,3.96
2022-10-03T14:12:11.733Z,4.91
2022-10-03T14:13:06.642Z,6.40
2022-10-03T14:13:53.748Z,4.88
2022-10-03T14:14:57.751Z,4.81
2022-10-03T14:16:02.802Z,5.36
2022-10-03T14:16:52.643Z,4.97
2022-10-03T14:17:48.766Z,4.15
2022-10-03T14:19:03.850Z,5.68
2022-10-03T14:19:56.737Z,7.40
2022-10-03T14:21:09.721Z,7.09
2022-10-03T14:22:07.818Z,6.10
2022-10-03T14:23:04.676Z,6.39
2022-10-03T14:23:48.752Z,6.10
2022-10-03T14:24:37.644Z,6.30
2022-10-03T14:25:41.229Z,6.82
2022-10-03T14:26:31.680Z,6.56
2022-10-03T14:27:27.240Z,5.78
2022-10-03T14:28:26.805Z,6.06
2022-10-03T14:29:26.028Z,7.20